CYYFCYLW

Guest
Details From CYYF - PENTICTON
To CYLW - Kelowna
Flight Number -
Tags generated
Created
Modified
Stats Distance 31 nm / 57 km
Max Altitude 500 ft / 152 m
Waypoints 3
Social Downloads 1
Likes 0
Share VATSIM

Download

Looking for another format? Having issues loading an existing format? Contact us
Advertisement - Login to hide

Notes

Basic altitude profile: - Ascent Rate: 2500ft/min - Ascent Speed: 80kts - Cruise Altitude: 10000ft - Cruise Speed: 80kts - Descent Rate: 1500ft/min - Descent Speed: 80kts Options: - Use NATs: yes - Use PACOTS: yes - Use low airways: yes - Use high airways: no

Route

CYYF YYF CYLW

ID Type Via Altitude Latitude Longitude Leg Dist Tot Dist Heading (true) Name
O CYYF APT - 0 ft / 0 m 49.46125˚ -119.60138˚ - 0 nm - PENTICTON
YYF NDB - 500 ft / 152 m 49.48772˚ -119.60153˚ 1 nm 1 nm 360° / 360° PENTICTON NDB
O CYLW APT - 0 ft / 0 m 49.95612˚ -119.37776˚ 29 nm 31 nm 17° / 17° Kelowna

Altitude Profile

Advertisement - Login to hide

CYYF

Details ICAO CYYF (YYF)
Name PENTICTON
Region Canada
Timezone America/Vancouver (UTC-8.0)
Stats Elevation 1,129 ft / 344 m (AMSL)
Location 49.461250° -119.601385°
Runways 1
Magnetic Variation 15.572° E

METAR

CYYF 181219Z 17013G22KT 12SM FEW010 FEW020 BKN040 OVC100 02/00 A2985 RMK SF1SC2SC3AC3 SF TR SLP123

Decode

TAF

TAF AMD TAF AMD CYYF 181248Z 1813/1901 17015G25KT P6SM FEW010 SCT020 BKN040 TEMPO 1813/1822 5SM -RA BR SCT010 BKN015 BECMG 1820/1822 36008KT FM182200 36008KT P6SM SCT020 BKN070 TEMPO 1822/1901 P6SM -RA BKN020 RMK NXT FCST BY 181900Z

Decode

Departure Runways

ID Width Length Bearing (true) Bearing (mag) Surface Threshold Offset Overrun Length
16 148 ft / 45 m 5,986 ft / 1,825 m 182.52° 166.95° Asphalt 0 ft / 0 m 0 ft / 0 m
34 148 ft / 45 m 5,986 ft / 1,825 m 2.52° 346.95° Asphalt 300 ft / 91 m 0 ft / 0 m

CYLW

Details ICAO CYLW (YLW)
Name Kelowna
Region Canada
Timezone America/Vancouver (UTC-8.0)
Stats Elevation 1,409 ft / 429 m (AMSL)
Location 49.956117° -119.377757°
Runways 1
Magnetic Variation 15.632° E

METAR

CYLW 181237Z AUTO 12003KT 080V190 7SM -UP SCT009 OVC016 01/00 A2987 RMK SLP134

Decode

TAF

TAF TAF CYLW 181238Z 1813/1901 13005KT P6SM -RASN OVC015 TEMPO 1813/1816 3SM -SN BR FM181600 13006KT P6SM BKN025 TEMPO 1816/1901 P6SM -RASN BKN020 RMK FCST BASED ON AUTO OBS. NXT FCST BY 181900Z

Decode

Destination Runways

ID Width Length Bearing (true) Bearing (mag) Surface Threshold Offset Overrun Length
16 200 ft / 61 m 7,299 ft / 2,225 m 174.89° 159.26° Asphalt 0 ft / 0 m 0 ft / 0 m
34 200 ft / 61 m 7,299 ft / 2,225 m 354.89° 339.26° Asphalt 0 ft / 0 m 0 ft / 0 m

Approach Navaids

Runway Type Ident Frequency Range Bearing (true) Bearing (mag) Slope Elevation
16 Localiser ILW 111.30 MHz 18 nm / 33 km 174.87° 159.24° - 1,049 ft / 320 m (AMSL)
16 Glidescope ILW 111.30 MHz 10 nm / 19 km 174.89° 159.26° 3.20° 1,409 ft / 429 m (AMSL)
16 DME ILW 111.30 MHz 18 nm / 33 km - - - 1,409 ft / 429 m (AMSL)